sensor_id;sensor_type;location;lat;lon;timestamp;P1;durP1;ratioP1;P2;durP2;ratioP2
54464;SDS011;40374;49.480;20.016;2023-04-15T00:01:59;11.77;;;4.70;;
54464;SDS011;40374;49.480;20.016;2023-04-15T00:04:26;8.52;;;4.90;;
54464;SDS011;40374;49.480;20.016;2023-04-15T00:06:54;11.13;;;4.50;;
54464;SDS011;40374;49.480;20.016;2023-04-15T00:09:22;14.35;;;5.43;;
54464;SDS011;40374;49.480;20.016;2023-04-15T00:11:50;15.15;;;5.70;;
54464;SDS011;40374;49.480;20.016;2023-04-15T00:14:17;12.57;;;5.45;;
54464;SDS011;40374;49.480;20.016;2023-04-15T00:16:44;12.30;;;5.18;;
54464;SDS011;40374;49.480;20.016;2023-04-15T00:19:12;14.43;;;5.80;;
54464;SDS011;40374;49.480;20.016;2023-04-15T00:21:39;10.98;;;5.05;;
54464;SDS011;40374;49.480;20.016;2023-04-15T00:24:07;21.60;;;7.15;;
54464;SDS011;40374;49.480;20.016;2023-04-15T00:26:34;18.05;;;6.28;;
54464;SDS011;40374;49.480;20.016;2023-04-15T00:29:02;8.55;;;3.33;;
54464;SDS011;40374;49.480;20.016;2023-04-15T00:31:30;9.88;;;2.83;;
54464;SDS011;40374;49.480;20.016;2023-04-15T00:33:57;10.65;;;3.78;;
54464;SDS011;40374;49.480;20.016;2023-04-15T00:36:25;10.85;;;4.13;;
54464;SDS011;40374;49.480;20.016;2023-04-15T00:38:53;6.32;;;3.50;;
54464;SDS011;40374;49.480;20.016;2023-04-15T00:41:20;4.45;;;2.88;;
54464;SDS011;40374;49.480;20.016;2023-04-15T00:43:48;4.97;;;3.00;;
54464;SDS011;40374;49.480;20.016;2023-04-15T00:46:19;5.10;;;2.40;;
54464;SDS011;40374;49.480;20.016;2023-04-15T00:48:47;6.47;;;2.70;;
54464;SDS011;40374;49.480;20.016;2023-04-15T00:51:16;4.70;;;2.25;;
54464;SDS011;40374;49.480;20.016;2023-04-15T00:53:43;4.97;;;2.53;;
54464;SDS011;40374;49.480;20.016;2023-04-15T00:56:11;6.57;;;2.78;;
54464;SDS011;40374;49.480;20.016;2023-04-15T00:58:40;5.85;;;2.40;;
54464;SDS011;40374;49.480;20.016;2023-04-15T01:01:08;7.10;;;3.40;;
54464;SDS011;40374;49.480;20.016;2023-04-15T01:03:36;8.90;;;4.15;;
54464;SDS011;40374;49.480;20.016;2023-04-15T01:06:04;6.47;;;2.92;;
54464;SDS011;40374;49.480;20.016;2023-04-15T01:08:31;5.53;;;2.85;;
54464;SDS011;40374;49.480;20.016;2023-04-15T01:11:00;4.43;;;2.58;;
54464;SDS011;40374;49.480;20.016;2023-04-15T01:13:29;3.00;;;1.98;;
54464;SDS011;40374;49.480;20.016;2023-04-15T01:15:57;4.13;;;2.97;;
54464;SDS011;40374;49.480;20.016;2023-04-15T01:18:24;2.63;;;1.60;;
54464;SDS011;40374;49.480;20.016;2023-04-15T01:20:53;3.65;;;2.20;;
54464;SDS011;40374;49.480;20.016;2023-04-15T01:23:23;3.15;;;1.58;;
54464;SDS011;40374;49.480;20.016;2023-04-15T01:25:50;6.40;;;2.03;;
54464;SDS011;40374;49.480;20.016;2023-04-15T01:28:19;3.38;;;1.98;;
54464;SDS011;40374;49.480;20.016;2023-04-15T01:30:47;2.45;;;1.50;;
54464;SDS011;40374;49.480;20.016;2023-04-15T01:33:15;1.95;;;1.60;;
54464;SDS011;40374;49.480;20.016;2023-04-15T01:35:45;2.45;;;2.00;;
54464;SDS011;40374;49.480;20.016;2023-04-15T01:38:13;4.05;;;2.08;;
54464;SDS011;40374;49.480;20.016;2023-04-15T01:40:43;4.13;;;2.42;;
54464;SDS011;40374;49.480;20.016;2023-04-15T01:43:13;3.22;;;2.20;;
54464;SDS011;40374;49.480;20.016;2023-04-15T01:45:41;5.00;;;2.42;;
54464;SDS011;40374;49.480;20.016;2023-04-15T01:48:09;5.30;;;2.33;;
54464;SDS011;40374;49.480;20.016;2023-04-15T01:50:37;3.50;;;2.30;;
54464;SDS011;40374;49.480;20.016;2023-04-15T01:53:04;4.75;;;2.40;;
54464;SDS011;40374;49.480;20.016;2023-04-15T01:55:32;4.60;;;2.63;;
54464;SDS011;40374;49.480;20.016;2023-04-15T01:57:59;5.55;;;2.40;;
54464;SDS011;40374;49.480;20.016;2023-04-15T02:00:27;6.22;;;2.33;;
54464;SDS011;40374;49.480;20.016;2023-04-15T02:02:54;2.90;;;2.40;;
54464;SDS011;40374;49.480;20.016;2023-04-15T02:05:25;3.33;;;2.30;;
54464;SDS011;40374;49.480;20.016;2023-04-15T02:07:52;3.10;;;2.58;;
54464;SDS011;40374;49.480;20.016;2023-04-15T02:10:19;4.10;;;2.97;;
54464;SDS011;40374;49.480;20.016;2023-04-15T02:12:47;4.85;;;2.85;;
54464;SDS011;40374;49.480;20.016;2023-04-15T02:15:15;4.55;;;2.65;;
54464;SDS011;40374;49.480;20.016;2023-04-15T02:17:42;3.50;;;2.70;;
54464;SDS011;40374;49.480;20.016;2023-04-15T02:20:14;5.00;;;2.70;;
54464;SDS011;40374;49.480;20.016;2023-04-15T02:22:41;3.97;;;2.47;;
54464;SDS011;40374;49.480;20.016;2023-04-15T02:25:09;2.80;;;2.22;;
54464;SDS011;40374;49.480;20.016;2023-04-15T02:27:36;7.65;;;4.43;;
54464;SDS011;40374;49.480;20.016;2023-04-15T02:30:04;3.90;;;2.47;;
54464;SDS011;40374;49.480;20.016;2023-04-15T02:32:33;4.55;;;2.83;;
54464;SDS011;40374;49.480;20.016;2023-04-15T02:35:05;3.15;;;2.30;;
54464;SDS011;40374;49.480;20.016;2023-04-15T02:37:34;3.67;;;2.80;;
54464;SDS011;40374;49.480;20.016;2023-04-15T02:40:09;7.28;;;2.90;;
54464;SDS011;40374;49.480;20.016;2023-04-15T02:42:39;2.90;;;2.55;;
54464;SDS011;40374;49.480;20.016;2023-04-15T02:45:10;4.00;;;2.90;;
54464;SDS011;40374;49.480;20.016;2023-04-15T02:47:39;11.25;;;3.83;;
54464;SDS011;40374;49.480;20.016;2023-04-15T02:50:09;9.93;;;4.28;;
54464;SDS011;40374;49.480;20.016;2023-04-15T02:52:40;3.65;;;2.78;;
54464;SDS011;40374;49.480;20.016;2023-04-15T02:55:09;3.92;;;2.40;;
54464;SDS011;40374;49.480;20.016;2023-04-15T02:57:36;4.10;;;2.60;;
54464;SDS011;40374;49.480;20.016;2023-04-15T03:00:07;4.55;;;3.00;;
54464;SDS011;40374;49.480;20.016;2023-04-15T03:02:40;3.55;;;2.85;;
54464;SDS011;40374;49.480;20.016;2023-04-15T03:05:13;6.10;;;4.13;;
54464;SDS011;40374;49.480;20.016;2023-04-15T03:07:50;6.45;;;4.18;;
54464;SDS011;40374;49.480;20.016;2023-04-15T03:10:18;6.25;;;4.15;;
54464;SDS011;40374;49.480;20.016;2023-04-15T03:12:46;4.20;;;3.10;;
54464;SDS011;40374;49.480;20.016;2023-04-15T03:15:19;5.13;;;3.72;;
54464;SDS011;40374;49.480;20.016;2023-04-15T03:17:50;4.82;;;3.50;;
54464;SDS011;40374;49.480;20.016;2023-04-15T03:20:18;7.38;;;3.85;;
54464;SDS011;40374;49.480;20.016;2023-04-15T03:22:46;6.38;;;3.75;;
54464;SDS011;40374;49.480;20.016;2023-04-15T03:25:14;7.72;;;3.63;;
54464;SDS011;40374;49.480;20.016;2023-04-15T03:27:42;7.82;;;4.30;;
54464;SDS011;40374;49.480;20.016;2023-04-15T03:30:11;7.97;;;4.50;;
54464;SDS011;40374;49.480;20.016;2023-04-15T03:32:39;6.60;;;4.70;;
54464;SDS011;40374;49.480;20.016;2023-04-15T03:35:07;9.65;;;4.43;;
54464;SDS011;40374;49.480;20.016;2023-04-15T03:37:35;7.65;;;4.40;;
54464;SDS011;40374;49.480;20.016;2023-04-15T03:40:03;8.63;;;4.60;;
54464;SDS011;40374;49.480;20.016;2023-04-15T03:42:32;8.00;;;3.88;;
54464;SDS011;40374;49.480;20.016;2023-04-15T03:45:00;7.18;;;4.90;;
54464;SDS011;40374;49.480;20.016;2023-04-15T03:47:27;7.30;;;4.70;;
54464;SDS011;40374;49.480;20.016;2023-04-15T03:49:55;9.40;;;4.70;;
54464;SDS011;40374;49.480;20.016;2023-04-15T03:52:22;8.18;;;3.95;;
54464;SDS011;40374;49.480;20.016;2023-04-15T03:54:50;9.93;;;5.55;;
54464;SDS011;40374;49.480;20.016;2023-04-15T03:57:17;15.52;;;5.40;;
54464;SDS011;40374;49.480;20.016;2023-04-15T03:59:44;11.82;;;6.82;;
54464;SDS011;40374;49.480;20.016;2023-04-15T04:02:15;9.13;;;6.05;;
54464;SDS011;40374;49.480;20.016;2023-04-15T04:04:45;11.25;;;7.18;;
54464;SDS011;40374;49.480;20.016;2023-04-15T04:07:16;16.25;;;7.82;;
54464;SDS011;40374;49.480;20.016;2023-04-15T04:09:46;13.02;;;8.55;;
54464;SDS011;40374;49.480;20.016;2023-04-15T04:12:14;19.73;;;10.43;;
54464;SDS011;40374;49.480;20.016;2023-04-15T04:14:48;20.70;;;11.07;;
54464;SDS011;40374;49.480;20.016;2023-04-15T04:17:15;18.55;;;11.10;;
54464;SDS011;40374;49.480;20.016;2023-04-15T04:19:43;16.85;;;8.75;;
54464;SDS011;40374;49.480;20.016;2023-04-15T04:22:10;17.48;;;11.20;;
54464;SDS011;40374;49.480;20.016;2023-04-15T04:24:38;20.17;;;11.77;;
54464;SDS011;40374;49.480;20.016;2023-04-15T04:27:08;25.33;;;12.48;;
54464;SDS011;40374;49.480;20.016;2023-04-15T04:29:35;21.20;;;12.23;;
54464;SDS011;40374;49.480;20.016;2023-04-15T04:32:04;24.40;;;13.38;;
54464;SDS011;40374;49.480;20.016;2023-04-15T04:34:32;31.75;;;14.75;;
54464;SDS011;40374;49.480;20.016;2023-04-15T04:36:59;27.70;;;14.35;;
54464;SDS011;40374;49.480;20.016;2023-04-15T04:39:26;21.05;;;11.68;;
54464;SDS011;40374;49.480;20.016;2023-04-15T04:41:54;16.48;;;8.20;;
54464;SDS011;40374;49.480;20.016;2023-04-15T04:44:23;13.00;;;8.10;;
54464;SDS011;40374;49.480;20.016;2023-04-15T04:46:51;19.08;;;9.50;;
54464;SDS011;40374;49.480;20.016;2023-04-15T04:49:19;25.08;;;12.80;;
54464;SDS011;40374;49.480;20.016;2023-04-15T04:51:46;17.67;;;10.55;;
54464;SDS011;40374;49.480;20.016;2023-04-15T04:54:20;15.80;;;9.05;;
54464;SDS011;40374;49.480;20.016;2023-04-15T04:57:13;18.98;;;8.27;;
54464;SDS011;40374;49.480;20.016;2023-04-15T04:59:42;20.27;;;9.40;;
54464;SDS011;40374;49.480;20.016;2023-04-15T05:02:12;19.27;;;10.77;;
54464;SDS011;40374;49.480;20.016;2023-04-15T05:04:41;22.23;;;11.57;;
54464;SDS011;40374;49.480;20.016;2023-04-15T05:07:10;20.38;;;10.68;;
54464;SDS011;40374;49.480;20.016;2023-04-15T05:09:41;20.52;;;10.85;;
54464;SDS011;40374;49.480;20.016;2023-04-15T05:12:09;17.52;;;10.25;;
54464;SDS011;40374;49.480;20.016;2023-04-15T05:14:42;18.20;;;10.77;;
54464;SDS011;40374;49.480;20.016;2023-04-15T05:17:10;26.23;;;14.15;;
54464;SDS011;40374;49.480;20.016;2023-04-15T05:19:40;25.33;;;13.35;;
54464;SDS011;40374;49.480;20.016;2023-04-15T05:22:11;30.58;;;15.25;;
54464;SDS011;40374;49.480;20.016;2023-04-15T05:24:41;24.92;;;13.32;;
54464;SDS011;40374;49.480;20.016;2023-04-15T05:27:09;24.95;;;14.30;;
54464;SDS011;40374;49.480;20.016;2023-04-15T05:29:37;15.13;;;9.05;;
54464;SDS011;40374;49.480;20.016;2023-04-15T05:32:05;25.75;;;11.15;;
54464;SDS011;40374;49.480;20.016;2023-04-15T05:34:33;35.55;;;15.88;;
54464;SDS011;40374;49.480;20.016;2023-04-15T05:37:00;33.45;;;15.77;;
54464;SDS011;40374;49.480;20.016;2023-04-15T05:39:29;18.23;;;10.57;;
54464;SDS011;40374;49.480;20.016;2023-04-15T05:42:05;11.77;;;5.70;;
54464;SDS011;40374;49.480;20.016;2023-04-15T05:44:33;13.00;;;6.65;;
54464;SDS011;40374;49.480;20.016;2023-04-15T05:47:06;11.27;;;6.05;;
54464;SDS011;40374;49.480;20.016;2023-04-15T05:49:34;12.75;;;7.25;;
54464;SDS011;40374;49.480;20.016;2023-04-15T05:52:03;14.20;;;6.18;;
54464;SDS011;40374;49.480;20.016;2023-04-15T05:54:34;6.55;;;4.05;;
54464;SDS011;40374;49.480;20.016;2023-04-15T05:57:04;6.85;;;3.05;;
54464;SDS011;40374;49.480;20.016;2023-04-15T05:59:32;10.73;;;5.57;;
54464;SDS011;40374;49.480;20.016;2023-04-15T06:01:59;12.75;;;3.63;;
54464;SDS011;40374;49.480;20.016;2023-04-15T06:04:27;13.90;;;4.22;;
54464;SDS011;40374;49.480;20.016;2023-04-15T06:06:54;9.80;;;4.55;;
54464;SDS011;40374;49.480;20.016;2023-04-15T06:09:25;4.57;;;3.38;;
54464;SDS011;40374;49.480;20.016;2023-04-15T06:11:52;1.52;;;1.42;;
54464;SDS011;40374;49.480;20.016;2023-04-15T06:14:21;2.63;;;1.50;;
54464;SDS011;40374;49.480;20.016;2023-04-15T06:16:50;5.00;;;1.80;;
54464;SDS011;40374;49.480;20.016;2023-04-15T06:19:18;3.45;;;1.30;;
54464;SDS011;40374;49.480;20.016;2023-04-15T06:21:47;6.47;;;1.73;;
54464;SDS011;40374;49.480;20.016;2023-04-15T06:24:16;1.77;;;1.60;;
54464;SDS011;40374;49.480;20.016;2023-04-15T06:26:44;1.50;;;1.20;;
54464;SDS011;40374;49.480;20.016;2023-04-15T06:29:16;6.05;;;1.60;;
54464;SDS011;40374;49.480;20.016;2023-04-15T06:31:47;3.28;;;2.15;;
54464;SDS011;40374;49.480;20.016;2023-04-15T06:34:15;3.05;;;1.48;;
54464;SDS011;40374;49.480;20.016;2023-04-15T06:36:42;5.38;;;1.98;;
54464;SDS011;40374;49.480;20.016;2023-04-15T06:39:10;3.10;;;1.42;;
54464;SDS011;40374;49.480;20.016;2023-04-15T06:41:38;5.90;;;1.70;;
54464;SDS011;40374;49.480;20.016;2023-04-15T06:44:06;2.72;;;1.63;;
54464;SDS011;40374;49.480;20.016;2023-04-15T06:46:34;1.50;;;1.38;;
54464;SDS011;40374;49.480;20.016;2023-04-15T06:49:01;4.70;;;1.60;;
54464;SDS011;40374;49.480;20.016;2023-04-15T06:51:29;3.13;;;1.65;;
54464;SDS011;40374;49.480;20.016;2023-04-15T06:53:58;3.78;;;1.40;;
54464;SDS011;40374;49.480;20.016;2023-04-15T06:56:26;2.47;;;1.30;;
54464;SDS011;40374;49.480;20.016;2023-04-15T06:58:54;5.60;;;1.85;;
54464;SDS011;40374;49.480;20.016;2023-04-15T07:01:23;8.85;;;1.27;;
54464;SDS011;40374;49.480;20.016;2023-04-15T07:03:52;2.40;;;1.27;;
54464;SDS011;40374;49.480;20.016;2023-04-15T07:06:20;10.68;;;2.45;;
54464;SDS011;40374;49.480;20.016;2023-04-15T07:08:49;10.43;;;1.55;;
54464;SDS011;40374;49.480;20.016;2023-04-15T07:11:18;5.57;;;1.40;;
54464;SDS011;40374;49.480;20.016;2023-04-15T07:13:48;7.15;;;1.73;;
54464;SDS011;40374;49.480;20.016;2023-04-15T07:16:18;6.18;;;2.65;;
54464;SDS011;40374;49.480;20.016;2023-04-15T07:18:49;1.67;;;1.20;;
54464;SDS011;40374;49.480;20.016;2023-04-15T07:21:16;3.17;;;1.77;;
54464;SDS011;40374;49.480;20.016;2023-04-15T07:23:44;2.70;;;1.35;;
54464;SDS011;40374;49.480;20.016;2023-04-15T07:26:13;1.50;;;1.02;;
54464;SDS011;40374;49.480;20.016;2023-04-15T07:28:45;2.42;;;0.90;;
54464;SDS011;40374;49.480;20.016;2023-04-15T07:31:16;1.65;;;1.02;;
54464;SDS011;40374;49.480;20.016;2023-04-15T07:33:46;2.45;;;1.33;;
54464;SDS011;40374;49.480;20.016;2023-04-15T07:36:13;6.50;;;2.60;;
54464;SDS011;40374;49.480;20.016;2023-04-15T07:38:41;1.85;;;1.35;;
54464;SDS011;40374;49.480;20.016;2023-04-15T07:41:08;2.28;;;1.40;;
54464;SDS011;40374;49.480;20.016;2023-04-15T07:43:36;3.83;;;2.10;;
54464;SDS011;40374;49.480;20.016;2023-04-15T07:46:04;9.10;;;2.92;;
54464;SDS011;40374;49.480;20.016;2023-04-15T07:48:32;6.78;;;3.05;;
54464;SDS011;40374;49.480;20.016;2023-04-15T07:51:01;33.70;;;15.13;;
54464;SDS011;40374;49.480;20.016;2023-04-15T07:53:29;19.58;;;8.25;;
54464;SDS011;40374;49.480;20.016;2023-04-15T07:55:57;7.60;;;5.03;;
54464;SDS011;40374;49.480;20.016;2023-04-15T10:34:28;2.63;;;1.75;;
54464;SDS011;40374;49.480;20.016;2023-04-15T10:37:00;3.50;;;1.92;;
54464;SDS011;40374;49.480;20.016;2023-04-15T10:44:38;3.13;;;2.03;;
54464;SDS011;40374;49.480;20.016;2023-04-15T10:47:13;5.22;;;1.80;;
54464;SDS011;40374;49.480;20.016;2023-04-15T10:49:42;8.02;;;2.00;;
54464;SDS011;40374;49.480;20.016;2023-04-15T10:52:13;2.17;;;1.77;;
54464;SDS011;40374;49.480;20.016;2023-04-15T10:54:42;2.95;;;1.80;;
54464;SDS011;40374;49.480;20.016;2023-04-15T10:57:14;3.10;;;1.80;;
54464;SDS011;40374;49.480;20.016;2023-04-15T11:08:11;3.83;;;1.48;;
54464;SDS011;40374;49.480;20.016;2023-04-15T11:15:38;4.07;;;2.30;;
54464;SDS011;40374;49.480;20.016;2023-04-15T11:18:20;3.80;;;1.55;;
54464;SDS011;40374;49.480;20.016;2023-04-15T11:20:52;3.55;;;2.20;;
54464;SDS011;40374;49.480;20.016;2023-04-15T11:26:14;1.95;;;1.77;;
54464;SDS011;40374;49.480;20.016;2023-04-15T11:28:43;2.28;;;1.65;;
54464;SDS011;40374;49.480;20.016;2023-04-15T11:33:56;1.92;;;1.48;;
54464;SDS011;40374;49.480;20.016;2023-04-15T11:36:26;1.42;;;1.33;;
54464;SDS011;40374;49.480;20.016;2023-04-15T11:38:58;4.00;;;2.40;;
54464;SDS011;40374;49.480;20.016;2023-04-15T11:41:27;1.50;;;1.40;;
54464;SDS011;40374;49.480;20.016;2023-04-15T11:43:54;3.55;;;1.77;;
54464;SDS011;40374;49.480;20.016;2023-04-15T11:46:27;1.38;;;1.25;;
54464;SDS011;40374;49.480;20.016;2023-04-15T11:48:56;1.58;;;1.45;;
54464;SDS011;40374;49.480;20.016;2023-04-15T11:51:24;1.48;;;1.35;;
54464;SDS011;40374;49.480;20.016;2023-04-15T11:53:52;1.83;;;1.40;;
54464;SDS011;40374;49.480;20.016;2023-04-15T11:56:24;4.43;;;1.77;;
54464;SDS011;40374;49.480;20.016;2023-04-15T11:58:56;1.50;;;1.30;;
54464;SDS011;40374;49.480;20.016;2023-04-15T12:01:35;1.55;;;1.40;;
54464;SDS011;40374;49.480;20.016;2023-04-15T12:04:13;89.20;;;31.27;;
54464;SDS011;40374;49.480;20.016;2023-04-15T12:06:43;6.40;;;3.28;;
54464;SDS011;40374;49.480;20.016;2023-04-15T12:09:12;2.00;;;1.63;;
54464;SDS011;40374;49.480;20.016;2023-04-15T12:11:45;3.35;;;1.38;;
54464;SDS011;40374;49.480;20.016;2023-04-15T12:16:56;2.75;;;1.63;;
54464;SDS011;40374;49.480;20.016;2023-04-15T12:22:05;1.27;;;1.17;;
54464;SDS011;40374;49.480;20.016;2023-04-15T12:24:36;5.13;;;1.23;;
54464;SDS011;40374;49.480;20.016;2023-04-15T12:27:05;2.13;;;1.45;;
54464;SDS011;40374;49.480;20.016;2023-04-15T12:32:10;1.98;;;1.67;;
54464;SDS011;40374;49.480;20.016;2023-04-15T12:34:40;1.90;;;1.23;;
54464;SDS011;40374;49.480;20.016;2023-04-15T12:37:15;2.00;;;1.33;;
54464;SDS011;40374;49.480;20.016;2023-04-15T12:39:44;1.05;;;0.93;;
54464;SDS011;40374;49.480;20.016;2023-04-15T12:42:15;2.55;;;1.50;;
54464;SDS011;40374;49.480;20.016;2023-04-15T12:44:43;2.20;;;1.38;;
54464;SDS011;40374;49.480;20.016;2023-04-15T12:47:11;4.07;;;1.95;;
54464;SDS011;40374;49.480;20.016;2023-04-15T12:49:39;7.53;;;1.70;;
54464;SDS011;40374;49.480;20.016;2023-04-15T12:52:07;3.20;;;1.80;;
54464;SDS011;40374;49.480;20.016;2023-04-15T12:54:35;1.77;;;1.45;;
54464;SDS011;40374;49.480;20.016;2023-04-15T12:57:02;5.22;;;2.70;;
54464;SDS011;40374;49.480;20.016;2023-04-15T12:59:33;1.40;;;1.30;;
54464;SDS011;40374;49.480;20.016;2023-04-15T13:02:01;4.80;;;1.55;;
54464;SDS011;40374;49.480;20.016;2023-04-15T13:04:30;3.33;;;1.58;;
54464;SDS011;40374;49.480;20.016;2023-04-15T13:06:57;2.78;;;2.15;;
54464;SDS011;40374;49.480;20.016;2023-04-15T13:09:25;41.33;;;23.73;;
54464;SDS011;40374;49.480;20.016;2023-04-15T13:11:52;26.95;;;6.82;;
54464;SDS011;40374;49.480;20.016;2023-04-15T13:14:20;8.55;;;2.47;;
54464;SDS011;40374;49.480;20.016;2023-04-15T13:16:48;2.42;;;1.58;;
54464;SDS011;40374;49.480;20.016;2023-04-15T13:19:15;4.53;;;1.25;;
54464;SDS011;40374;49.480;20.016;2023-04-15T13:21:43;6.85;;;2.60;;
54464;SDS011;40374;49.480;20.016;2023-04-15T13:24:10;9.60;;;3.88;;
54464;SDS011;40374;49.480;20.016;2023-04-15T13:26:37;6.32;;;2.47;;
54464;SDS011;40374;49.480;20.016;2023-04-15T13:29:05;4.32;;;2.50;;
54464;SDS011;40374;49.480;20.016;2023-04-15T13:31:33;2.92;;;1.58;;
54464;SDS011;40374;49.480;20.016;2023-04-15T13:38:43;3.47;;;2.20;;
54464;SDS011;40374;49.480;20.016;2023-04-15T13:41:10;4.28;;;2.58;;
54464;SDS011;40374;49.480;20.016;2023-04-15T13:43:37;6.65;;;4.07;;
54464;SDS011;40374;49.480;20.016;2023-04-15T13:46:05;3.40;;;1.95;;
54464;SDS011;40374;49.480;20.016;2023-04-15T13:48:32;2.35;;;1.95;;
54464;SDS011;40374;49.480;20.016;2023-04-15T13:51:00;6.30;;;2.35;;
54464;SDS011;40374;49.480;20.016;2023-04-15T13:53:27;2.85;;;1.77;;
54464;SDS011;40374;49.480;20.016;2023-04-15T13:56:06;6.32;;;3.47;;
54464;SDS011;40374;49.480;20.016;2023-04-15T13:58:34;17.50;;;7.13;;
54464;SDS011;40374;49.480;20.016;2023-04-15T14:01:03;6.13;;;3.92;;
54464;SDS011;40374;49.480;20.016;2023-04-15T14:03:33;20.38;;;2.60;;
54464;SDS011;40374;49.480;20.016;2023-04-15T14:06:03;7.65;;;3.85;;
54464;SDS011;40374;49.480;20.016;2023-04-15T14:08:31;2.25;;;1.42;;
54464;SDS011;40374;49.480;20.016;2023-04-15T14:10:58;15.48;;;4.60;;
54464;SDS011;40374;49.480;20.016;2023-04-15T14:13:26;4.75;;;3.33;;
54464;SDS011;40374;49.480;20.016;2023-04-15T14:15:55;2.72;;;1.58;;
54464;SDS011;40374;49.480;20.016;2023-04-15T14:18:22;2.70;;;1.55;;
54464;SDS011;40374;49.480;20.016;2023-04-15T14:20:50;6.07;;;2.70;;
54464;SDS011;40374;49.480;20.016;2023-04-15T14:23:18;3.42;;;2.17;;
54464;SDS011;40374;49.480;20.016;2023-04-15T14:25:45;2.45;;;1.73;;
54464;SDS011;40374;49.480;20.016;2023-04-15T14:28:14;11.18;;;4.18;;
54464;SDS011;40374;49.480;20.016;2023-04-15T14:30:42;4.40;;;2.00;;
54464;SDS011;40374;49.480;20.016;2023-04-15T14:33:09;3.40;;;2.45;;
54464;SDS011;40374;49.480;20.016;2023-04-15T14:35:37;2.38;;;1.50;;
54464;SDS011;40374;49.480;20.016;2023-04-15T14:38:04;2.13;;;1.45;;
54464;SDS011;40374;49.480;20.016;2023-04-15T14:40:37;1.48;;;1.17;;
54464;SDS011;40374;49.480;20.016;2023-04-15T14:43:04;2.08;;;1.40;;
54464;SDS011;40374;49.480;20.016;2023-04-15T14:45:32;3.20;;;1.77;;
54464;SDS011;40374;49.480;20.016;2023-04-15T14:47:59;4.65;;;2.42;;
54464;SDS011;40374;49.480;20.016;2023-04-15T14:50:27;5.30;;;2.50;;
54464;SDS011;40374;49.480;20.016;2023-04-15T14:52:57;6.05;;;3.15;;
54464;SDS011;40374;49.480;20.016;2023-04-15T14:55:25;6.53;;;3.50;;
54464;SDS011;40374;49.480;20.016;2023-04-15T14:57:53;6.47;;;2.75;;
54464;SDS011;40374;49.480;20.016;2023-04-15T15:00:21;5.40;;;2.72;;
54464;SDS011;40374;49.480;20.016;2023-04-15T15:02:48;5.10;;;3.00;;
54464;SDS011;40374;49.480;20.016;2023-04-15T15:05:18;2.10;;;1.90;;
54464;SDS011;40374;49.480;20.016;2023-04-15T15:07:46;4.13;;;2.53;;
54464;SDS011;40374;49.480;20.016;2023-04-15T15:10:14;3.00;;;2.50;;
54464;SDS011;40374;49.480;20.016;2023-04-15T15:12:41;2.50;;;1.92;;
54464;SDS011;40374;49.480;20.016;2023-04-15T15:15:08;4.60;;;2.50;;
54464;SDS011;40374;49.480;20.016;2023-04-15T15:17:54;6.70;;;4.40;;
54464;SDS011;40374;49.480;20.016;2023-04-15T15:20:22;4.18;;;2.38;;
54464;SDS011;40374;49.480;20.016;2023-04-15T15:22:50;3.00;;;2.35;;
54464;SDS011;40374;49.480;20.016;2023-04-15T15:25:18;8.35;;;3.60;;
54464;SDS011;40374;49.480;20.016;2023-04-15T15:27:45;2.38;;;1.70;;
54464;SDS011;40374;49.480;20.016;2023-04-15T15:30:13;3.45;;;2.03;;
54464;SDS011;40374;49.480;20.016;2023-04-15T15:32:40;5.20;;;1.73;;
54464;SDS011;40374;49.480;20.016;2023-04-15T15:35:11;17.88;;;6.18;;
54464;SDS011;40374;49.480;20.016;2023-04-15T15:37:38;9.52;;;5.05;;
54464;SDS011;40374;49.480;20.016;2023-04-15T15:40:07;44.17;;;16.85;;
54464;SDS011;40374;49.480;20.016;2023-04-15T15:42:36;48.35;;;18.58;;
54464;SDS011;40374;49.480;20.016;2023-04-15T15:45:04;22.52;;;9.13;;
54464;SDS011;40374;49.480;20.016;2023-04-15T15:47:31;45.20;;;16.35;;
54464;SDS011;40374;49.480;20.016;2023-04-15T15:49:59;35.80;;;14.50;;
54464;SDS011;40374;49.480;20.016;2023-04-15T15:52:29;13.18;;;6.53;;
54464;SDS011;40374;49.480;20.016;2023-04-15T15:54:57;32.03;;;15.32;;
54464;SDS011;40374;49.480;20.016;2023-04-15T15:57:24;22.42;;;16.30;;
54464;SDS011;40374;49.480;20.016;2023-04-15T15:59:52;11.43;;;7.45;;
54464;SDS011;40374;49.480;20.016;2023-04-15T16:02:38;7.97;;;5.00;;
54464;SDS011;40374;49.480;20.016;2023-04-15T16:05:25;16.42;;;7.65;;
54464;SDS011;40374;49.480;20.016;2023-04-15T16:07:52;10.70;;;5.60;;
54464;SDS011;40374;49.480;20.016;2023-04-15T16:10:20;18.80;;;8.52;;
54464;SDS011;40374;49.480;20.016;2023-04-15T16:12:47;13.43;;;5.47;;
54464;SDS011;40374;49.480;20.016;2023-04-15T16:15:15;7.38;;;4.60;;
54464;SDS011;40374;49.480;20.016;2023-04-15T16:17:42;8.38;;;4.72;;
54464;SDS011;40374;49.480;20.016;2023-04-15T16:20:10;12.05;;;5.05;;
54464;SDS011;40374;49.480;20.016;2023-04-15T16:22:37;10.07;;;5.75;;
54464;SDS011;40374;49.480;20.016;2023-04-15T16:25:08;14.60;;;7.50;;
54464;SDS011;40374;49.480;20.016;2023-04-15T16:27:35;12.00;;;6.20;;
54464;SDS011;40374;49.480;20.016;2023-04-15T16:30:23;12.75;;;6.30;;
54464;SDS011;40374;49.480;20.016;2023-04-15T16:32:50;13.15;;;5.82;;
54464;SDS011;40374;49.480;20.016;2023-04-15T16:35:18;16.85;;;6.03;;
54464;SDS011;40374;49.480;20.016;2023-04-15T16:37:45;12.00;;;6.25;;
54464;SDS011;40374;49.480;20.016;2023-04-15T16:40:13;11.38;;;5.60;;
54464;SDS011;40374;49.480;20.016;2023-04-15T16:42:41;17.27;;;7.25;;
54464;SDS011;40374;49.480;20.016;2023-04-15T16:45:09;13.93;;;6.63;;
54464;SDS011;40374;49.480;20.016;2023-04-15T16:47:37;14.18;;;6.55;;
54464;SDS011;40374;49.480;20.016;2023-04-15T16:50:05;16.73;;;6.72;;
54464;SDS011;40374;49.480;20.016;2023-04-15T16:52:33;14.15;;;7.50;;
54464;SDS011;40374;49.480;20.016;2023-04-15T16:55:00;14.48;;;7.13;;
54464;SDS011;40374;49.480;20.016;2023-04-15T16:57:28;16.33;;;6.93;;
54464;SDS011;40374;49.480;20.016;2023-04-15T17:00:15;20.15;;;8.98;;
54464;SDS011;40374;49.480;20.016;2023-04-15T17:02:43;10.55;;;5.88;;
54464;SDS011;40374;49.480;20.016;2023-04-15T17:05:11;14.73;;;7.05;;
54464;SDS011;40374;49.480;20.016;2023-04-15T17:07:38;21.85;;;8.10;;
54464;SDS011;40374;49.480;20.016;2023-04-15T17:10:07;16.83;;;7.47;;
54464;SDS011;40374;49.480;20.016;2023-04-15T17:12:35;17.48;;;8.57;;
54464;SDS011;40374;49.480;20.016;2023-04-15T17:15:06;16.42;;;9.23;;
54464;SDS011;40374;49.480;20.016;2023-04-15T17:17:34;62.17;;;23.75;;
54464;SDS011;40374;49.480;20.016;2023-04-15T17:20:04;25.75;;;10.82;;
54464;SDS011;40374;49.480;20.016;2023-04-15T17:22:32;16.23;;;7.70;;
54464;SDS011;40374;49.480;20.016;2023-04-15T17:24:59;35.97;;;15.43;;
54464;SDS011;40374;49.480;20.016;2023-04-15T17:27:27;24.95;;;11.13;;
54464;SDS011;40374;49.480;20.016;2023-04-15T17:29:56;21.48;;;7.68;;
54464;SDS011;40374;49.480;20.016;2023-04-15T17:32:24;24.00;;;8.20;;
54464;SDS011;40374;49.480;20.016;2023-04-15T17:34:52;27.35;;;11.52;;
54464;SDS011;40374;49.480;20.016;2023-04-15T17:37:19;36.13;;;13.55;;
54464;SDS011;40374;49.480;20.016;2023-04-15T17:39:47;33.97;;;14.63;;
54464;SDS011;40374;49.480;20.016;2023-04-15T17:42:14;32.08;;;13.23;;
54464;SDS011;40374;49.480;20.016;2023-04-15T17:44:43;43.20;;;14.75;;
54464;SDS011;40374;49.480;20.016;2023-04-15T17:47:11;28.08;;;14.18;;
54464;SDS011;40374;49.480;20.016;2023-04-15T17:49:39;33.33;;;16.38;;
54464;SDS011;40374;49.480;20.016;2023-04-15T17:52:06;36.75;;;15.57;;